sensor_id;sensor_type;location;lat;lon;timestamp;P1;durP1;ratioP1;P2;durP2;ratioP2
48623;SDS011;34422;45.802;16.114;2022-10-16T00:01:29;202.05;;;99.28;;
48623;SDS011;34422;45.802;16.114;2022-10-16T00:03:57;197.20;;;98.35;;
48623;SDS011;34422;45.802;16.114;2022-10-16T00:06:26;182.48;;;96.20;;
48623;SDS011;34422;45.802;16.114;2022-10-16T00:08:54;245.27;;;102.10;;
48623;SDS011;34422;45.802;16.114;2022-10-16T00:11:25;271.75;;;102.22;;
48623;SDS011;34422;45.802;16.114;2022-10-16T00:13:58;175.48;;;89.47;;
48623;SDS011;34422;45.802;16.114;2022-10-16T00:16:27;134.50;;;88.95;;
48623;SDS011;34422;45.802;16.114;2022-10-16T00:18:54;370.83;;;114.38;;
48623;SDS011;34422;45.802;16.114;2022-10-16T00:21:23;196.20;;;100.10;;
48623;SDS011;34422;45.802;16.114;2022-10-16T00:23:52;162.75;;;91.20;;
48623;SDS011;34422;45.802;16.114;2022-10-16T00:26:21;269.38;;;106.25;;
48623;SDS011;34422;45.802;16.114;2022-10-16T00:28:49;432.45;;;123.88;;
48623;SDS011;34422;45.802;16.114;2022-10-16T00:31:17;377.63;;;116.63;;
48623;SDS011;34422;45.802;16.114;2022-10-16T00:33:46;261.90;;;107.47;;
48623;SDS011;34422;45.802;16.114;2022-10-16T00:36:14;177.18;;;98.40;;
48623;SDS011;34422;45.802;16.114;2022-10-16T00:38:43;373.15;;;116.40;;
48623;SDS011;34422;45.802;16.114;2022-10-16T00:41:15;141.93;;;86.80;;
48623;SDS011;34422;45.802;16.114;2022-10-16T00:43:44;222.15;;;91.50;;
48623;SDS011;34422;45.802;16.114;2022-10-16T00:46:15;294.48;;;98.78;;
48623;SDS011;34422;45.802;16.114;2022-10-16T00:48:45;454.55;;;118.60;;
48623;SDS011;34422;45.802;16.114;2022-10-16T00:51:19;131.35;;;85.22;;
48623;SDS011;34422;45.802;16.114;2022-10-16T00:53:52;121.38;;;82.18;;
48623;SDS011;34422;45.802;16.114;2022-10-16T00:56:19;135.80;;;80.68;;
48623;SDS011;34422;45.802;16.114;2022-10-16T00:58:45;402.95;;;110.45;;
48623;SDS011;34422;45.802;16.114;2022-10-16T01:01:12;434.38;;;119.97;;
48623;SDS011;34422;45.802;16.114;2022-10-16T01:03:39;145.23;;;86.38;;
48623;SDS011;34422;45.802;16.114;2022-10-16T01:09:09;283.50;;;95.22;;
48623;SDS011;34422;45.802;16.114;2022-10-16T01:11:41;453.35;;;111.53;;
48623;SDS011;34422;45.802;16.114;2022-10-16T01:14:15;214.52;;;84.18;;
48623;SDS011;34422;45.802;16.114;2022-10-16T01:17:13;224.88;;;88.43;;
48623;SDS011;34422;45.802;16.114;2022-10-16T01:22:50;162.85;;;80.30;;
48623;SDS011;34422;45.802;16.114;2022-10-16T01:25:25;208.85;;;86.20;;
48623;SDS011;34422;45.802;16.114;2022-10-16T01:28:03;382.35;;;95.90;;
48623;SDS011;34422;45.802;16.114;2022-10-16T01:30:34;239.43;;;90.32;;
48623;SDS011;34422;45.802;16.114;2022-10-16T01:33:04;267.17;;;93.80;;
48623;SDS011;34422;45.802;16.114;2022-10-16T01:35:41;168.52;;;82.57;;
48623;SDS011;34422;45.802;16.114;2022-10-16T01:38:14;188.80;;;87.10;;
48623;SDS011;34422;45.802;16.114;2022-10-16T01:40:46;127.22;;;77.35;;
48623;SDS011;34422;45.802;16.114;2022-10-16T01:43:20;111.13;;;74.65;;
48623;SDS011;34422;45.802;16.114;2022-10-16T01:45:51;135.85;;;79.95;;
48623;SDS011;34422;45.802;16.114;2022-10-16T01:48:19;107.97;;;73.13;;
48623;SDS011;34422;45.802;16.114;2022-10-16T01:50:55;207.75;;;83.90;;
48623;SDS011;34422;45.802;16.114;2022-10-16T01:53:32;106.70;;;73.43;;
48623;SDS011;34422;45.802;16.114;2022-10-16T01:55:59;162.57;;;78.72;;
48623;SDS011;34422;45.802;16.114;2022-10-16T01:58:30;158.75;;;71.78;;
48623;SDS011;34422;45.802;16.114;2022-10-16T02:01:02;121.88;;;72.47;;
48623;SDS011;34422;45.802;16.114;2022-10-16T02:03:30;172.43;;;75.55;;
48623;SDS011;34422;45.802;16.114;2022-10-16T02:05:59;338.20;;;92.85;;
48623;SDS011;34422;45.802;16.114;2022-10-16T02:08:27;97.75;;;67.90;;
48623;SDS011;34422;45.802;16.114;2022-10-16T02:10:55;203.50;;;74.55;;
48623;SDS011;34422;45.802;16.114;2022-10-16T02:13:26;298.75;;;91.78;;
48623;SDS011;34422;45.802;16.114;2022-10-16T02:15:58;141.50;;;80.00;;
48623;SDS011;34422;45.802;16.114;2022-10-16T02:18:26;238.57;;;86.85;;
48623;SDS011;34422;45.802;16.114;2022-10-16T02:20:59;255.35;;;92.10;;
48623;SDS011;34422;45.802;16.114;2022-10-16T02:26:26;134.52;;;77.57;;
48623;SDS011;34422;45.802;16.114;2022-10-16T02:28:59;300.10;;;99.10;;
48623;SDS011;34422;45.802;16.114;2022-10-16T02:31:32;398.58;;;106.15;;
48623;SDS011;34422;45.802;16.114;2022-10-16T02:34:01;427.65;;;107.88;;
48623;SDS011;34422;45.802;16.114;2022-10-16T02:36:31;227.13;;;87.88;;
48623;SDS011;34422;45.802;16.114;2022-10-16T02:39:00;466.08;;;120.20;;
48623;SDS011;34422;45.802;16.114;2022-10-16T02:41:27;433.70;;;113.20;;
48623;SDS011;34422;45.802;16.114;2022-10-16T02:43:54;439.00;;;114.63;;
48623;SDS011;34422;45.802;16.114;2022-10-16T02:46:21;268.85;;;94.20;;
48623;SDS011;34422;45.802;16.114;2022-10-16T02:48:48;160.32;;;80.45;;
48623;SDS011;34422;45.802;16.114;2022-10-16T02:51:15;425.02;;;108.03;;
48623;SDS011;34422;45.802;16.114;2022-10-16T02:53:42;143.43;;;77.70;;
48623;SDS011;34422;45.802;16.114;2022-10-16T02:56:08;462.98;;;110.82;;
48623;SDS011;34422;45.802;16.114;2022-10-16T02:58:35;162.10;;;79.40;;
48623;SDS011;34422;45.802;16.114;2022-10-16T03:01:02;264.10;;;87.18;;
48623;SDS011;34422;45.802;16.114;2022-10-16T03:03:28;366.65;;;94.03;;
48623;SDS011;34422;45.802;16.114;2022-10-16T03:05:55;217.48;;;81.90;;
48623;SDS011;34422;45.802;16.114;2022-10-16T03:08:22;380.35;;;99.55;;
48623;SDS011;34422;45.802;16.114;2022-10-16T03:10:51;218.35;;;87.25;;
48623;SDS011;34422;45.802;16.114;2022-10-16T03:13:18;459.00;;;104.95;;
48623;SDS011;34422;45.802;16.114;2022-10-16T03:15:47;414.73;;;105.95;;
48623;SDS011;34422;45.802;16.114;2022-10-16T03:18:14;464.20;;;107.32;;
48623;SDS011;34422;45.802;16.114;2022-10-16T03:20:42;660.10;;;127.05;;
48623;SDS011;34422;45.802;16.114;2022-10-16T03:23:09;302.13;;;94.38;;
48623;SDS011;34422;45.802;16.114;2022-10-16T03:25:36;567.53;;;119.43;;
48623;SDS011;34422;45.802;16.114;2022-10-16T03:28:03;146.27;;;76.10;;
48623;SDS011;34422;45.802;16.114;2022-10-16T03:30:30;293.35;;;88.65;;
48623;SDS011;34422;45.802;16.114;2022-10-16T03:32:57;422.90;;;104.47;;
48623;SDS011;34422;45.802;16.114;2022-10-16T03:35:24;177.80;;;78.63;;
48623;SDS011;34422;45.802;16.114;2022-10-16T03:37:51;134.30;;;73.07;;
48623;SDS011;34422;45.802;16.114;2022-10-16T03:40:18;140.13;;;74.95;;
48623;SDS011;34422;45.802;16.114;2022-10-16T03:42:45;221.32;;;88.88;;
48623;SDS011;34422;45.802;16.114;2022-10-16T03:45:11;237.70;;;85.97;;
48623;SDS011;34422;45.802;16.114;2022-10-16T03:47:38;156.57;;;76.15;;
48623;SDS011;34422;45.802;16.114;2022-10-16T03:50:05;190.10;;;77.57;;
48623;SDS011;34422;45.802;16.114;2022-10-16T03:52:32;264.17;;;90.82;;
48623;SDS011;34422;45.802;16.114;2022-10-16T03:54:59;168.43;;;73.88;;
48623;SDS011;34422;45.802;16.114;2022-10-16T03:57:26;244.75;;;84.55;;
48623;SDS011;34422;45.802;16.114;2022-10-16T03:59:53;213.48;;;80.18;;
48623;SDS011;34422;45.802;16.114;2022-10-16T04:02:19;176.85;;;77.28;;
48623;SDS011;34422;45.802;16.114;2022-10-16T04:04:46;220.68;;;82.15;;
48623;SDS011;34422;45.802;16.114;2022-10-16T04:07:13;321.42;;;89.88;;
48623;SDS011;34422;45.802;16.114;2022-10-16T04:09:40;116.50;;;67.20;;
48623;SDS011;34422;45.802;16.114;2022-10-16T04:12:07;204.98;;;76.38;;
48623;SDS011;34422;45.802;16.114;2022-10-16T04:14:34;110.82;;;63.58;;
48623;SDS011;34422;45.802;16.114;2022-10-16T04:17:00;213.70;;;79.85;;
48623;SDS011;34422;45.802;16.114;2022-10-16T04:19:27;149.00;;;69.57;;
48623;SDS011;34422;45.802;16.114;2022-10-16T04:21:54;385.52;;;87.80;;
48623;SDS011;34422;45.802;16.114;2022-10-16T04:24:21;417.05;;;96.35;;
48623;SDS011;34422;45.802;16.114;2022-10-16T04:26:47;276.73;;;80.85;;
48623;SDS011;34422;45.802;16.114;2022-10-16T04:29:14;243.27;;;84.97;;
48623;SDS011;34422;45.802;16.114;2022-10-16T04:31:41;238.00;;;84.25;;
48623;SDS011;34422;45.802;16.114;2022-10-16T04:34:08;269.40;;;78.82;;
48623;SDS011;34422;45.802;16.114;2022-10-16T04:36:34;255.68;;;81.85;;
48623;SDS011;34422;45.802;16.114;2022-10-16T04:39:01;237.27;;;82.03;;
48623;SDS011;34422;45.802;16.114;2022-10-16T04:41:28;163.10;;;74.25;;
48623;SDS011;34422;45.802;16.114;2022-10-16T04:43:55;160.63;;;71.50;;
48623;SDS011;34422;45.802;16.114;2022-10-16T04:46:21;309.65;;;86.80;;
48623;SDS011;34422;45.802;16.114;2022-10-16T04:48:48;233.55;;;81.50;;
48623;SDS011;34422;45.802;16.114;2022-10-16T04:51:15;122.32;;;71.50;;
48623;SDS011;34422;45.802;16.114;2022-10-16T04:53:42;185.68;;;75.78;;
48623;SDS011;34422;45.802;16.114;2022-10-16T04:56:08;198.63;;;80.65;;
48623;SDS011;34422;45.802;16.114;2022-10-16T04:58:35;148.45;;;70.55;;
48623;SDS011;34422;45.802;16.114;2022-10-16T05:01:02;186.05;;;72.32;;
48623;SDS011;34422;45.802;16.114;2022-10-16T05:03:29;110.93;;;63.42;;
48623;SDS011;34422;45.802;16.114;2022-10-16T05:05:56;169.93;;;71.63;;
48623;SDS011;34422;45.802;16.114;2022-10-16T05:08:23;179.20;;;70.82;;
48623;SDS011;34422;45.802;16.114;2022-10-16T05:10:50;233.82;;;77.60;;
48623;SDS011;34422;45.802;16.114;2022-10-16T05:13:16;107.00;;;64.63;;
48623;SDS011;34422;45.802;16.114;2022-10-16T05:15:46;159.57;;;75.85;;
48623;SDS011;34422;45.802;16.114;2022-10-16T05:18:14;224.35;;;80.25;;
48623;SDS011;34422;45.802;16.114;2022-10-16T05:20:42;188.40;;;79.22;;
48623;SDS011;34422;45.802;16.114;2022-10-16T05:23:09;198.15;;;81.20;;
48623;SDS011;34422;45.802;16.114;2022-10-16T05:25:39;220.60;;;86.15;;
48623;SDS011;34422;45.802;16.114;2022-10-16T05:28:06;235.82;;;84.78;;
48623;SDS011;34422;45.802;16.114;2022-10-16T05:30:32;162.15;;;75.47;;
48623;SDS011;34422;45.802;16.114;2022-10-16T05:32:59;173.85;;;74.07;;
48623;SDS011;34422;45.802;16.114;2022-10-16T05:35:26;164.32;;;74.57;;
48623;SDS011;34422;45.802;16.114;2022-10-16T05:37:53;198.02;;;77.55;;
48623;SDS011;34422;45.802;16.114;2022-10-16T05:40:20;225.95;;;79.22;;
48623;SDS011;34422;45.802;16.114;2022-10-16T05:42:47;184.40;;;76.40;;
48623;SDS011;34422;45.802;16.114;2022-10-16T05:45:13;108.88;;;66.07;;
48623;SDS011;34422;45.802;16.114;2022-10-16T05:47:40;262.27;;;86.55;;
48623;SDS011;34422;45.802;16.114;2022-10-16T05:50:07;293.33;;;88.05;;
48623;SDS011;34422;45.802;16.114;2022-10-16T05:52:35;185.57;;;75.15;;
48623;SDS011;34422;45.802;16.114;2022-10-16T05:55:01;154.85;;;70.47;;
48623;SDS011;34422;45.802;16.114;2022-10-16T05:57:29;130.18;;;67.43;;
48623;SDS011;34422;45.802;16.114;2022-10-16T05:59:56;142.45;;;71.97;;
48623;SDS011;34422;45.802;16.114;2022-10-16T06:02:23;242.85;;;85.25;;
48623;SDS011;34422;45.802;16.114;2022-10-16T06:04:51;205.57;;;80.53;;
48623;SDS011;34422;45.802;16.114;2022-10-16T06:07:20;257.47;;;73.93;;
48623;SDS011;34422;45.802;16.114;2022-10-16T06:09:51;199.48;;;77.95;;
48623;SDS011;34422;45.802;16.114;2022-10-16T06:12:18;157.05;;;76.35;;
48623;SDS011;34422;45.802;16.114;2022-10-16T06:14:46;179.18;;;76.63;;
48623;SDS011;34422;45.802;16.114;2022-10-16T06:17:15;135.40;;;72.15;;
48623;SDS011;34422;45.802;16.114;2022-10-16T06:19:42;224.07;;;82.82;;
48623;SDS011;34422;45.802;16.114;2022-10-16T06:22:09;139.68;;;70.22;;
48623;SDS011;34422;45.802;16.114;2022-10-16T06:24:36;148.60;;;73.63;;
48623;SDS011;34422;45.802;16.114;2022-10-16T06:27:04;216.55;;;79.18;;
48623;SDS011;34422;45.802;16.114;2022-10-16T06:29:31;322.50;;;86.63;;
48623;SDS011;34422;45.802;16.114;2022-10-16T06:31:58;221.48;;;79.68;;
48623;SDS011;34422;45.802;16.114;2022-10-16T06:34:25;233.52;;;78.32;;
48623;SDS011;34422;45.802;16.114;2022-10-16T06:36:51;268.77;;;80.63;;
48623;SDS011;34422;45.802;16.114;2022-10-16T06:39:18;185.52;;;72.75;;
48623;SDS011;34422;45.802;16.114;2022-10-16T06:41:45;124.82;;;66.80;;
48623;SDS011;34422;45.802;16.114;2022-10-16T06:44:12;125.80;;;67.53;;
48623;SDS011;34422;45.802;16.114;2022-10-16T06:46:38;216.13;;;74.43;;
48623;SDS011;34422;45.802;16.114;2022-10-16T06:49:05;155.80;;;70.68;;
48623;SDS011;34422;45.802;16.114;2022-10-16T06:51:32;181.45;;;70.00;;
48623;SDS011;34422;45.802;16.114;2022-10-16T06:54:00;194.88;;;70.05;;
48623;SDS011;34422;45.802;16.114;2022-10-16T06:56:28;125.07;;;66.45;;
48623;SDS011;34422;45.802;16.114;2022-10-16T06:58:57;116.53;;;64.35;;
48623;SDS011;34422;45.802;16.114;2022-10-16T07:01:23;116.88;;;63.20;;
48623;SDS011;34422;45.802;16.114;2022-10-16T07:03:51;100.90;;;59.78;;
48623;SDS011;34422;45.802;16.114;2022-10-16T07:06:19;131.45;;;65.72;;
48623;SDS011;34422;45.802;16.114;2022-10-16T07:08:47;145.60;;;62.13;;
48623;SDS011;34422;45.802;16.114;2022-10-16T07:11:15;159.60;;;61.30;;
48623;SDS011;34422;45.802;16.114;2022-10-16T07:13:44;144.85;;;82.35;;
48623;SDS011;34422;45.802;16.114;2022-10-16T07:16:16;105.82;;;64.18;;
48623;SDS011;34422;45.802;16.114;2022-10-16T07:18:45;106.13;;;59.08;;
48623;SDS011;34422;45.802;16.114;2022-10-16T07:21:13;120.60;;;56.75;;
48623;SDS011;34422;45.802;16.114;2022-10-16T07:23:53;103.65;;;52.97;;
48623;SDS011;34422;45.802;16.114;2022-10-16T07:26:24;179.38;;;58.38;;
48623;SDS011;34422;45.802;16.114;2022-10-16T07:28:52;123.10;;;69.15;;
48623;SDS011;34422;45.802;16.114;2022-10-16T07:31:19;121.82;;;51.83;;
48623;SDS011;34422;45.802;16.114;2022-10-16T07:33:47;173.27;;;51.50;;
48623;SDS011;34422;45.802;16.114;2022-10-16T07:36:15;109.28;;;43.53;;
48623;SDS011;34422;45.802;16.114;2022-10-16T07:38:43;130.75;;;47.47;;
48623;SDS011;34422;45.802;16.114;2022-10-16T07:41:11;72.10;;;45.03;;
48623;SDS011;34422;45.802;16.114;2022-10-16T07:43:40;158.35;;;48.53;;
48623;SDS011;34422;45.802;16.114;2022-10-16T07:48:38;77.93;;;46.20;;
48623;SDS011;34422;45.802;16.114;2022-10-16T07:51:05;86.30;;;46.38;;
48623;SDS011;34422;45.802;16.114;2022-10-16T07:53:33;118.38;;;42.42;;
48623;SDS011;34422;45.802;16.114;2022-10-16T07:56:01;89.57;;;44.33;;
48623;SDS011;34422;45.802;16.114;2022-10-16T07:58:30;96.40;;;44.17;;
48623;SDS011;34422;45.802;16.114;2022-10-16T08:00:57;115.82;;;44.92;;
48623;SDS011;34422;45.802;16.114;2022-10-16T08:03:25;101.07;;;43.83;;
48623;SDS011;34422;45.802;16.114;2022-10-16T08:05:52;101.18;;;41.50;;
48623;SDS011;34422;45.802;16.114;2022-10-16T08:08:19;78.80;;;47.90;;
48623;SDS011;34422;45.802;16.114;2022-10-16T08:10:46;66.50;;;42.83;;
48623;SDS011;34422;45.802;16.114;2022-10-16T08:13:12;68.78;;;42.75;;
48623;SDS011;34422;45.802;16.114;2022-10-16T08:15:44;63.97;;;41.67;;
48623;SDS011;34422;45.802;16.114;2022-10-16T08:18:12;62.65;;;40.08;;
48623;SDS011;34422;45.802;16.114;2022-10-16T08:20:40;60.60;;;40.30;;
48623;SDS011;34422;45.802;16.114;2022-10-16T08:23:09;65.53;;;37.97;;
48623;SDS011;34422;45.802;16.114;2022-10-16T08:25:37;56.00;;;35.40;;
48623;SDS011;34422;45.802;16.114;2022-10-16T08:28:05;59.03;;;37.45;;
48623;SDS011;34422;45.802;16.114;2022-10-16T08:30:33;52.65;;;36.55;;
48623;SDS011;34422;45.802;16.114;2022-10-16T08:33:01;52.15;;;36.63;;
48623;SDS011;34422;45.802;16.114;2022-10-16T08:35:28;57.30;;;39.25;;
48623;SDS011;34422;45.802;16.114;2022-10-16T08:37:55;54.50;;;39.33;;
48623;SDS011;34422;45.802;16.114;2022-10-16T08:40:24;56.72;;;39.63;;
48623;SDS011;34422;45.802;16.114;2022-10-16T08:43:01;59.97;;;39.85;;
48623;SDS011;34422;45.802;16.114;2022-10-16T08:51:02;54.97;;;38.50;;
48623;SDS011;34422;45.802;16.114;2022-10-16T08:53:31;54.63;;;37.83;;
48623;SDS011;34422;45.802;16.114;2022-10-16T08:56:08;54.95;;;38.00;;
48623;SDS011;34422;45.802;16.114;2022-10-16T08:58:35;52.35;;;38.80;;
48623;SDS011;34422;45.802;16.114;2022-10-16T09:01:11;49.40;;;35.33;;
48623;SDS011;34422;45.802;16.114;2022-10-16T09:06:17;49.35;;;36.13;;
48623;SDS011;34422;45.802;16.114;2022-10-16T09:12:18;51.30;;;37.17;;
48623;SDS011;34422;45.802;16.114;2022-10-16T09:15:00;51.47;;;37.47;;
48623;SDS011;34422;45.802;16.114;2022-10-16T09:23:16;53.53;;;38.30;;
48623;SDS011;34422;45.802;16.114;2022-10-16T09:25:47;50.00;;;36.70;;
48623;SDS011;34422;45.802;16.114;2022-10-16T09:28:16;45.67;;;35.83;;
48623;SDS011;34422;45.802;16.114;2022-10-16T09:30:45;44.17;;;34.85;;
48623;SDS011;34422;45.802;16.114;2022-10-16T09:33:15;49.35;;;35.10;;
48623;SDS011;34422;45.802;16.114;2022-10-16T09:35:44;50.17;;;37.40;;
48623;SDS011;34422;45.802;16.114;2022-10-16T09:38:29;46.47;;;36.03;;
48623;SDS011;34422;45.802;16.114;2022-10-16T09:40:58;49.08;;;39.00;;
48623;SDS011;34422;45.802;16.114;2022-10-16T09:48:27;41.20;;;33.20;;
48623;SDS011;34422;45.802;16.114;2022-10-16T09:51:00;46.30;;;35.35;;
48623;SDS011;34422;45.802;16.114;2022-10-16T09:53:39;47.10;;;33.83;;
48623;SDS011;34422;45.802;16.114;2022-10-16T09:56:09;44.10;;;34.55;;
48623;SDS011;34422;45.802;16.114;2022-10-16T09:58:43;46.40;;;34.40;;
48623;SDS011;34422;45.802;16.114;2022-10-16T10:01:15;46.13;;;35.15;;
48623;SDS011;34422;45.802;16.114;2022-10-16T10:03:43;45.15;;;34.35;;
48623;SDS011;34422;45.802;16.114;2022-10-16T10:11:53;43.63;;;34.17;;
48623;SDS011;34422;45.802;16.114;2022-10-16T10:14:35;42.17;;;33.42;;
48623;SDS011;34422;45.802;16.114;2022-10-16T10:17:10;47.30;;;35.08;;
48623;SDS011;34422;45.802;16.114;2022-10-16T10:22:17;48.65;;;34.97;;
48623;SDS011;34422;45.802;16.114;2022-10-16T10:25:10;44.85;;;34.58;;
48623;SDS011;34422;45.802;16.114;2022-10-16T10:30:19;46.20;;;33.95;;
48623;SDS011;34422;45.802;16.114;2022-10-16T10:38:30;41.28;;;33.47;;
48623;SDS011;34422;45.802;16.114;2022-10-16T10:46:14;43.58;;;33.33;;
48623;SDS011;34422;45.802;16.114;2022-10-16T10:51:58;43.53;;;35.13;;
48623;SDS011;34422;45.802;16.114;2022-10-16T10:54:41;42.83;;;34.47;;
48623;SDS011;34422;45.802;16.114;2022-10-16T11:00:18;43.47;;;33.10;;
48623;SDS011;34422;45.802;16.114;2022-10-16T11:05:44;41.08;;;33.33;;
48623;SDS011;34422;45.802;16.114;2022-10-16T11:08:19;42.28;;;34.38;;
48623;SDS011;34422;45.802;16.114;2022-10-16T11:10:58;43.38;;;33.75;;
48623;SDS011;34422;45.802;16.114;2022-10-16T11:16:22;42.65;;;33.97;;
48623;SDS011;34422;45.802;16.114;2022-10-16T11:19:05;38.38;;;32.38;;
48623;SDS011;34422;45.802;16.114;2022-10-16T11:27:20;47.53;;;37.67;;
48623;SDS011;34422;45.802;16.114;2022-10-16T11:30:20;38.38;;;31.95;;
48623;SDS011;34422;45.802;16.114;2022-10-16T11:35:37;35.92;;;29.83;;
48623;SDS011;34422;45.802;16.114;2022-10-16T11:44:16;37.85;;;30.50;;
48623;SDS011;34422;45.802;16.114;2022-10-16T11:46:49;34.28;;;27.92;;
48623;SDS011;34422;45.802;16.114;2022-10-16T11:49:25;35.58;;;29.10;;
48623;SDS011;34422;45.802;16.114;2022-10-16T11:54:41;34.70;;;28.00;;
48623;SDS011;34422;45.802;16.114;2022-10-16T11:57:18;31.65;;;27.70;;
48623;SDS011;34422;45.802;16.114;2022-10-16T11:59:54;33.22;;;27.33;;
48623;SDS011;34422;45.802;16.114;2022-10-16T12:07:36;39.10;;;29.27;;
48623;SDS011;34422;45.802;16.114;2022-10-16T12:10:10;32.45;;;25.75;;
48623;SDS011;34422;45.802;16.114;2022-10-16T12:12:45;33.10;;;27.25;;
48623;SDS011;34422;45.802;16.114;2022-10-16T12:17:53;30.65;;;24.33;;
48623;SDS011;34422;45.802;16.114;2022-10-16T12:20:23;36.15;;;27.02;;
48623;SDS011;34422;45.802;16.114;2022-10-16T12:22:59;33.05;;;26.33;;
48623;SDS011;34422;45.802;16.114;2022-10-16T12:25:29;32.00;;;25.88;;
48623;SDS011;34422;45.802;16.114;2022-10-16T12:28:16;31.35;;;25.30;;
48623;SDS011;34422;45.802;16.114;2022-10-16T12:30:53;31.20;;;25.33;;
48623;SDS011;34422;45.802;16.114;2022-10-16T12:33:29;33.92;;;25.27;;
48623;SDS011;34422;45.802;16.114;2022-10-16T12:36:13;30.83;;;25.60;;
48623;SDS011;34422;45.802;16.114;2022-10-16T12:39:01;30.38;;;25.70;;
48623;SDS011;34422;45.802;16.114;2022-10-16T12:41:33;40.28;;;31.45;;
48623;SDS011;34422;45.802;16.114;2022-10-16T12:44:04;33.22;;;25.55;;
48623;SDS011;34422;45.802;16.114;2022-10-16T12:51:38;29.25;;;24.95;;
48623;SDS011;34422;45.802;16.114;2022-10-16T12:54:15;37.88;;;25.55;;
48623;SDS011;34422;45.802;16.114;2022-10-16T13:24:36;28.05;;;22.90;;
48623;SDS011;34422;45.802;16.114;2022-10-16T13:27:12;27.85;;;22.45;;
48623;SDS011;34422;45.802;16.114;2022-10-16T13:29:53;30.30;;;24.50;;
48623;SDS011;34422;45.802;16.114;2022-10-16T13:32:26;28.38;;;23.15;;
48623;SDS011;34422;45.802;16.114;2022-10-16T13:34:54;26.92;;;22.05;;
48623;SDS011;34422;45.802;16.114;2022-10-16T13:37:23;30.20;;;23.13;;
48623;SDS011;34422;45.802;16.114;2022-10-16T13:39:50;27.60;;;21.92;;
48623;SDS011;34422;45.802;16.114;2022-10-16T13:42:21;27.13;;;21.80;;
48623;SDS011;34422;45.802;16.114;2022-10-16T13:44:52;29.20;;;22.60;;
48623;SDS011;34422;45.802;16.114;2022-10-16T13:47:24;27.02;;;22.10;;
48623;SDS011;34422;45.802;16.114;2022-10-16T13:50:26;23.77;;;21.05;;
48623;SDS011;34422;45.802;16.114;2022-10-16T13:52:46;28.02;;;23.02;;
48623;SDS011;34422;45.802;16.114;2022-10-16T13:55:13;25.98;;;21.73;;
48623;SDS011;34422;45.802;16.114;2022-10-16T13:57:42;26.25;;;21.52;;
48623;SDS011;34422;45.802;16.114;2022-10-16T14:00:25;24.70;;;21.70;;
48623;SDS011;34422;45.802;16.114;2022-10-16T14:03:00;27.92;;;21.73;;
48623;SDS011;34422;45.802;16.114;2022-10-16T14:05:29;26.30;;;21.30;;
48623;SDS011;34422;45.802;16.114;2022-10-16T14:07:57;25.88;;;22.05;;
48623;SDS011;34422;45.802;16.114;2022-10-16T14:10:26;28.25;;;22.83;;
48623;SDS011;34422;45.802;16.114;2022-10-16T14:13:03;25.23;;;21.75;;
48623;SDS011;34422;45.802;16.114;2022-10-16T14:15:32;25.88;;;21.30;;
48623;SDS011;34422;45.802;16.114;2022-10-16T14:18:00;25.27;;;21.42;;
48623;SDS011;34422;45.802;16.114;2022-10-16T14:20:29;27.10;;;21.40;;
48623;SDS011;34422;45.802;16.114;2022-10-16T14:23:02;25.20;;;21.40;;
48623;SDS011;34422;45.802;16.114;2022-10-16T14:25:31;28.02;;;22.45;;
48623;SDS011;34422;45.802;16.114;2022-10-16T14:28:03;30.35;;;23.02;;
48623;SDS011;34422;45.802;16.114;2022-10-16T14:30:36;25.80;;;20.60;;
48623;SDS011;34422;45.802;16.114;2022-10-16T14:33:04;25.30;;;21.83;;
48623;SDS011;34422;45.802;16.114;2022-10-16T14:35:46;25.30;;;21.27;;
48623;SDS011;34422;45.802;16.114;2022-10-16T14:38:19;26.63;;;21.85;;
48623;SDS011;34422;45.802;16.114;2022-10-16T14:40:47;25.48;;;21.38;;
48623;SDS011;34422;45.802;16.114;2022-10-16T14:43:24;27.23;;;22.02;;
48623;SDS011;34422;45.802;16.114;2022-10-16T14:45:54;26.65;;;21.50;;
48623;SDS011;34422;45.802;16.114;2022-10-16T14:48:23;25.42;;;20.75;;
48623;SDS011;34422;45.802;16.114;2022-10-16T14:50:50;28.60;;;23.15;;
48623;SDS011;34422;45.802;16.114;2022-10-16T14:53:17;29.50;;;23.85;;
48623;SDS011;34422;45.802;16.114;2022-10-16T14:55:44;26.48;;;21.85;;
48623;SDS011;34422;45.802;16.114;2022-10-16T14:58:19;25.05;;;21.70;;
48623;SDS011;34422;45.802;16.114;2022-10-16T15:00:48;27.85;;;22.25;;
48623;SDS011;34422;45.802;16.114;2022-10-16T15:03:15;25.60;;;22.20;;
48623;SDS011;34422;45.802;16.114;2022-10-16T15:05:42;29.67;;;22.92;;
48623;SDS011;34422;45.802;16.114;2022-10-16T15:08:09;26.80;;;22.13;;
48623;SDS011;34422;45.802;16.114;2022-10-16T15:10:38;27.88;;;22.63;;
48623;SDS011;34422;45.802;16.114;2022-10-16T15:13:13;28.75;;;21.83;;
48623;SDS011;34422;45.802;16.114;2022-10-16T15:18:11;29.00;;;21.05;;
48623;SDS011;34422;45.802;16.114;2022-10-16T15:20:41;26.80;;;21.60;;
48623;SDS011;34422;45.802;16.114;2022-10-16T15:23:15;28.42;;;22.75;;
48623;SDS011;34422;45.802;16.114;2022-10-16T15:25:44;28.70;;;22.98;;
48623;SDS011;34422;45.802;16.114;2022-10-16T15:28:13;29.92;;;23.88;;
48623;SDS011;34422;45.802;16.114;2022-10-16T15:30:41;30.88;;;23.05;;
48623;SDS011;34422;45.802;16.114;2022-10-16T15:33:11;28.50;;;24.05;;
48623;SDS011;34422;45.802;16.114;2022-10-16T15:35:40;30.88;;;24.05;;
48623;SDS011;34422;45.802;16.114;2022-10-16T15:38:09;30.13;;;24.50;;
48623;SDS011;34422;45.802;16.114;2022-10-16T15:40:40;31.00;;;25.15;;
48623;SDS011;34422;45.802;16.114;2022-10-16T15:43:07;31.48;;;25.05;;
48623;SDS011;34422;45.802;16.114;2022-10-16T15:45:35;35.92;;;27.98;;
48623;SDS011;34422;45.802;16.114;2022-10-16T15:48:01;36.50;;;28.42;;
48623;SDS011;34422;45.802;16.114;2022-10-16T15:50:28;38.20;;;28.88;;
48623;SDS011;34422;45.802;16.114;2022-10-16T15:52:56;36.15;;;28.67;;
48623;SDS011;34422;45.802;16.114;2022-10-16T15:55:23;40.05;;;30.00;;
48623;SDS011;34422;45.802;16.114;2022-10-16T15:57:50;43.58;;;31.40;;
48623;SDS011;34422;45.802;16.114;2022-10-16T16:00:18;48.25;;;32.83;;
48623;SDS011;34422;45.802;16.114;2022-10-16T16:02:50;42.30;;;30.35;;
48623;SDS011;34422;45.802;16.114;2022-10-16T16:05:18;36.63;;;27.38;;
48623;SDS011;34422;45.802;16.114;2022-10-16T16:07:46;38.63;;;30.33;;
48623;SDS011;34422;45.802;16.114;2022-10-16T16:10:13;43.50;;;30.83;;
48623;SDS011;34422;45.802;16.114;2022-10-16T16:12:40;42.30;;;29.92;;
48623;SDS011;34422;45.802;16.114;2022-10-16T16:15:07;43.25;;;30.27;;
48623;SDS011;34422;45.802;16.114;2022-10-16T16:17:35;41.75;;;30.55;;
48623;SDS011;34422;45.802;16.114;2022-10-16T16:20:03;44.83;;;33.63;;
48623;SDS011;34422;45.802;16.114;2022-10-16T16:22:31;43.65;;;33.70;;
48623;SDS011;34422;45.802;16.114;2022-10-16T16:24:58;42.58;;;32.33;;